Aeroporto :
LOGIN :

Iscrizione | Disclaimer

   EN    FR    IT 

 










Sommario :    VFR   VFR Marginale   IFR   IFR Intensivo   IFR Molto Intensivo
Visibilità : 
Base nubi : 
>= 8 km
>= 3000ft
5 / 8 km
1000 / 3000 ft
1500m / 5 km
500 / 1000 ft
800 / 1500m
200 / 500 ft
< 800m
< 200 ft
Simboli :   Temporali  Nebbia  Neve Forte  Precipitazioni Forti  Vento > 20 kt
SIGMETs :   Varie  Temporali  Ghiacco  Turbolenza  Onda orograficha  Ceneri Vulcaniche






- Altitudine del aeroporto : 794 ft


LKCV - Čáslav Air Base

ULTIMO METAR :
  • 172100Z 14008KT 9999 BKN046 00/M02 Q1022 NOSIG RMK BLU BLU

METARs OBSOLETI :
  • 172000Z 15009KT 9999 FEW013 BKN043 00/M02 Q1021 NOSIG RMK BLU BLU
  • 171900Z 15010KT 9999 FEW012 SCT210 M00/M02 Q1021 NOSIG RMK BLU BLU

TAF TAF LKCV
Valido dal 17 a 18 ore il 18 a 18 ore UTC


171700Z 1718/1818 15010KT 9999 OVC013
TEMPO 1718/1720 14017KT
TEMPO 1718/1800 3000 BR OVC006
PROB40
TEMPO 1718/1800 0800 FZFG OVC002
TEMPO 1802/1816 3000 FZRASN OVC007
PROB30 1804/1812 1200 SN OVC003



MetMap, La meteo Aeronautica in un colpo d'occhio ! - Copyright ORBIFLY Dicembre 2007 - Disclaimer

ORBIFLY MET'MAP TEAM :

Programmazione e sviluppo : Alexandra Zaïnal
Concezione : Baudouin d'Aumeries
Aiuto per la programmazione : Marc-Olivier Méhu
Supporto tecnico e logistico : Manuel Goepfert
Aiuto per la traduzione : Arnaldo La Scala

Contatto : metmap@orbifly.com




FONTI E CREDITI :

   NOAA